createdAt,value
2018-03-08T00:01:21.313Z,32.33
2018-03-08T00:03:52.005Z,32.20
2018-03-08T00:06:22.830Z,28.87
2018-03-08T00:08:53.559Z,29.90
2018-03-08T00:11:25.532Z,29.33
2018-03-08T00:13:56.703Z,31.57
2018-03-08T00:16:27.066Z,34.03
2018-03-08T00:18:57.859Z,30.27
2018-03-08T00:21:28.268Z,34.87
2018-03-08T00:23:59.324Z,33.03
2018-03-08T00:26:30.279Z,30.40
2018-03-08T00:29:01.156Z,28.03
2018-03-08T00:31:31.303Z,26.63
2018-03-08T00:34:02.140Z,25.07
2018-03-08T00:36:33.009Z,23.10
2018-03-08T00:39:04.256Z,22.90
2018-03-08T00:41:35.164Z,21.60
2018-03-08T00:44:05.786Z,18.77
2018-03-08T00:46:36.699Z,18.40
2018-03-08T00:49:07.171Z,18.30
2018-03-08T00:51:37.481Z,20.23
2018-03-08T00:54:07.512Z,19.83
2018-03-08T00:56:38.114Z,21.47
2018-03-08T00:59:08.638Z,23.27
2018-03-08T01:01:39.177Z,21.97
2018-03-08T01:04:09.138Z,21.40
2018-03-08T01:06:39.640Z,21.13
2018-03-08T01:09:10.280Z,23.67
2018-03-08T01:11:40.985Z,24.00
2018-03-08T01:14:12.052Z,29.70
2018-03-08T01:16:42.676Z,29.57
2018-03-08T01:19:13.423Z,42.63
2018-03-08T01:21:43.842Z,43.70
2018-03-08T01:24:14.576Z,40.80
2018-03-08T01:26:45.307Z,39.23
2018-03-08T01:29:15.933Z,41.77
2018-03-08T01:31:46.885Z,42.93
2018-03-08T01:34:17.578Z,44.07
2018-03-08T01:36:47.927Z,42.00
2018-03-08T01:39:19.072Z,47.80
2018-03-08T01:41:49.937Z,41.60
2018-03-08T01:44:20.307Z,44.20
2018-03-08T01:46:50.957Z,40.60
2018-03-08T01:49:21.821Z,39.83
2018-03-08T01:52:03.702Z,42.93
2018-03-08T01:54:34.154Z,39.57
2018-03-08T01:57:05.050Z,37.17
2018-03-08T01:59:35.946Z,36.40
2018-03-08T02:02:06.547Z,36.73
2018-03-08T02:04:37.623Z,35.50
2018-03-08T02:07:07.475Z,34.33
2018-03-08T02:09:37.907Z,34.83
2018-03-08T02:12:09.014Z,35.97
2018-03-08T02:14:39.739Z,38.60
2018-03-08T02:17:11.149Z,36.53
2018-03-08T02:19:42.086Z,35.50
2018-03-08T02:22:12.826Z,34.47
2018-03-08T02:24:44.614Z,35.50
2018-03-08T02:27:15.220Z,34.63
2018-03-08T02:29:46.193Z,37.33
2018-03-08T02:32:16.067Z,37.37
2018-03-08T02:34:46.956Z,36.33
2018-03-08T02:37:17.461Z,35.47
2018-03-08T02:39:47.727Z,33.13
2018-03-08T02:42:17.568Z,33.03
2018-03-08T02:44:48.156Z,36.07
2018-03-08T02:47:18.739Z,31.70
2018-03-08T02:49:49.458Z,32.20
2018-03-08T02:52:19.889Z,29.93
2018-03-08T02:54:50.417Z,29.73
2018-03-08T02:57:21.422Z,31.03
2018-03-08T02:59:52.717Z,29.20
2018-03-08T03:02:23.248Z,30.73
2018-03-08T03:04:54.092Z,31.23
2018-03-08T03:07:24.480Z,30.13
2018-03-08T03:09:55.197Z,30.00
2018-03-08T03:12:26.047Z,32.77
2018-03-08T03:14:57.179Z,31.40
2018-03-08T03:17:27.843Z,30.47
2018-03-08T03:19:58.153Z,31.50
2018-03-08T03:22:28.932Z,32.13
2018-03-08T03:24:59.966Z,32.67
2018-03-08T03:27:31.413Z,30.60
2018-03-08T03:30:02.418Z,31.63
2018-03-08T03:32:33.158Z,29.60
2018-03-08T03:35:03.182Z,29.20
2018-03-08T03:37:34.024Z,29.23
2018-03-08T03:40:04.659Z,24.40
2018-03-08T03:42:35.759Z,23.57
2018-03-08T03:45:06.809Z,22.70
2018-03-08T03:47:37.467Z,20.77
2018-03-08T03:50:07.879Z,19.80
2018-03-08T03:52:38.359Z,18.97
2018-03-08T03:55:08.448Z,17.53
2018-03-08T03:57:40.050Z,17.47
2018-03-08T04:00:10.483Z,16.27
2018-03-08T04:02:41.155Z,16.40
2018-03-08T04:05:11.581Z,17.60
2018-03-08T04:07:42.164Z,19.47
2018-03-08T04:10:12.130Z,19.87
2018-03-08T04:12:42.756Z,19.33
2018-03-08T04:15:13.396Z,18.37
2018-03-08T04:17:44.027Z,19.37
2018-03-08T04:20:15.064Z,18.27
2018-03-08T04:22:46.120Z,17.83
2018-03-08T04:25:17.076Z,18.63
2018-03-08T04:27:48.104Z,18.40
2018-03-08T04:30:19.089Z,16.57
2018-03-08T04:32:50.052Z,16.73
2018-03-08T04:35:20.800Z,15.97
2018-03-08T04:37:52.367Z,16.37
2018-03-08T04:40:23.845Z,17.47
2018-03-08T04:42:54.008Z,16.80
2018-03-08T04:45:25.098Z,17.20
2018-03-08T04:47:55.709Z,17.13
2018-03-08T04:50:26.235Z,17.57
2018-03-08T04:52:57.197Z,18.27
2018-03-08T04:55:28.255Z,17.20
2018-03-08T04:57:58.029Z,16.77
2018-03-08T05:00:27.943Z,16.23
2018-03-08T05:02:57.855Z,15.73
2018-03-08T05:05:27.770Z,16.50
2018-03-08T05:07:59.524Z,16.67
2018-03-08T05:10:29.530Z,15.70
2018-03-08T05:12:59.446Z,15.67
2018-03-08T05:15:29.374Z,15.80
2018-03-08T05:17:59.296Z,16.87
2018-03-08T05:20:30.080Z,19.13
2018-03-08T05:23:01.433Z,17.73
2018-03-08T05:25:32.116Z,16.97
2018-03-08T05:28:03.051Z,15.57
2018-03-08T05:30:33.748Z,16.80
2018-03-08T05:33:04.686Z,16.77
2018-03-08T05:35:35.576Z,16.07
2018-03-08T05:38:05.982Z,14.97
2018-03-08T05:40:36.611Z,15.97
2018-03-08T05:43:06.734Z,16.27
2018-03-08T05:45:37.972Z,15.23
2018-03-08T05:48:09.226Z,14.83
2018-03-08T05:50:40.243Z,14.93
2018-03-08T05:53:10.697Z,14.00
2018-03-08T05:55:41.355Z,14.73
2018-03-08T05:58:11.837Z,13.93
2018-03-08T06:00:42.249Z,15.87
2018-03-08T06:03:13.437Z,14.63
2018-03-08T06:05:44.516Z,14.53
2018-03-08T06:08:15.374Z,14.13
2018-03-08T06:10:46.585Z,15.07
2018-03-08T06:13:17.298Z,14.60
2018-03-08T06:15:48.191Z,14.73
2018-03-08T06:18:18.957Z,15.50
2018-03-08T06:20:49.847Z,15.10
2018-03-08T06:23:20.669Z,14.03
2018-03-08T06:25:51.662Z,13.60
2018-03-08T06:28:22.671Z,13.47
2018-03-08T06:30:53.690Z,12.57
2018-03-08T06:33:24.413Z,12.13
2018-03-08T06:35:55.105Z,11.53
2018-03-08T06:38:26.565Z,11.13
2018-03-08T06:40:59.154Z,10.00
2018-03-08T06:43:30.563Z,11.10
2018-03-08T06:46:01.232Z,10.40
2018-03-08T06:48:32.215Z,11.80
2018-03-08T06:51:03.002Z,15.47
2018-03-08T06:53:34.092Z,13.17
2018-03-08T06:56:04.776Z,13.53
2018-03-08T06:58:34.900Z,14.73
2018-03-08T07:01:05.428Z,13.50
2018-03-08T07:03:35.739Z,12.40
2018-03-08T07:06:06.289Z,12.67
2018-03-08T07:08:37.105Z,14.70
2018-03-08T07:11:08.365Z,15.27
2018-03-08T07:13:39.216Z,13.00
2018-03-08T07:16:09.342Z,13.10
2018-03-08T07:18:41.000Z,10.73
2018-03-08T07:21:12.101Z,11.07
2018-03-08T07:23:42.494Z,11.30
2018-03-08T07:26:13.606Z,11.63
2018-03-08T07:28:44.425Z,11.40
2018-03-08T07:31:15.356Z,12.00
2018-03-08T07:33:46.082Z,11.63
2018-03-08T07:36:17.120Z,11.53
2018-03-08T07:38:47.842Z,19.57
2018-03-08T07:41:18.785Z,17.60
2018-03-08T07:43:49.387Z,15.20
2018-03-08T07:46:20.592Z,12.40
2018-03-08T07:48:51.556Z,19.90
2018-03-08T07:51:23.231Z,19.57
2018-03-08T07:53:54.812Z,17.53
2018-03-08T07:56:25.802Z,18.43
2018-03-08T07:58:56.744Z,12.73
2018-03-08T08:01:27.644Z,14.63
2018-03-08T08:03:59.369Z,15.10
2018-03-08T08:06:36.507Z,16.60
2018-03-08T08:09:11.635Z,15.80
2018-03-08T08:11:43.617Z,16.87
2018-03-08T08:14:15.778Z,16.03
2018-03-08T08:16:46.509Z,15.13
2018-03-08T08:19:17.528Z,16.53
2018-03-08T08:21:48.999Z,16.00
2018-03-08T08:24:20.137Z,16.03
2018-03-08T08:26:51.788Z,14.43
2018-03-08T08:29:22.290Z,15.13
2018-03-08T08:31:52.832Z,14.43
2018-03-08T08:34:23.089Z,13.67
2018-03-08T08:36:54.100Z,14.13
2018-03-08T08:39:23.936Z,18.43
2018-03-08T08:41:55.222Z,18.80
2018-03-08T08:44:26.304Z,17.87
2018-03-08T08:46:56.754Z,21.00
2018-03-08T08:49:27.435Z,20.93
2018-03-08T08:51:58.927Z,20.83
2018-03-08T08:54:29.866Z,19.40
2018-03-08T08:57:00.471Z,18.30
2018-03-08T08:59:31.212Z,16.60
2018-03-08T09:02:01.966Z,19.00
2018-03-08T09:04:32.975Z,16.67
2018-03-08T09:07:04.032Z,16.83
2018-03-08T09:09:34.778Z,15.00
2018-03-08T09:12:05.307Z,16.70
2018-03-08T09:14:36.146Z,16.97
2018-03-08T09:17:07.814Z,16.83
2018-03-08T09:19:38.340Z,17.73
2018-03-08T09:22:08.265Z,17.70
2018-03-08T09:24:38.905Z,18.07
2018-03-08T09:27:10.006Z,20.47
2018-03-08T09:29:40.882Z,17.60
2018-03-08T09:32:11.502Z,15.70
2018-03-08T09:34:41.824Z,15.73
2018-03-08T09:37:12.567Z,15.70
2018-03-08T09:39:43.137Z,15.27
2018-03-08T09:42:14.380Z,15.70
2018-03-08T09:44:45.364Z,15.60
2018-03-08T09:47:16.495Z,15.87
2018-03-08T09:49:47.403Z,15.73
2018-03-08T09:52:17.894Z,15.20
2018-03-08T09:54:48.298Z,13.90
2018-03-08T09:57:19.028Z,13.87
2018-03-08T09:59:49.604Z,12.47
2018-03-08T10:02:20.675Z,13.30
2018-03-08T10:04:51.469Z,15.10
2018-03-08T10:07:22.079Z,16.43
2018-03-08T10:09:52.721Z,15.47
2018-03-08T10:12:23.098Z,12.53
2018-03-08T10:14:54.057Z,12.83
2018-03-08T10:17:24.604Z,11.67
2018-03-08T10:19:55.521Z,13.90
2018-03-08T10:22:26.188Z,12.83
2018-03-08T10:24:56.855Z,13.93
2018-03-08T10:27:27.936Z,14.20
2018-03-08T10:29:58.939Z,14.17
2018-03-08T10:32:29.518Z,14.53
2018-03-08T10:35:00.436Z,15.17
2018-03-08T10:37:32.134Z,15.53
2018-03-08T10:40:02.132Z,14.27
2018-03-08T10:45:03.814Z,10.57
2018-03-08T10:47:34.762Z,9.80
2018-03-08T10:50:05.683Z,10.30
2018-03-08T10:52:36.187Z,9.73
2018-03-08T10:55:06.009Z,10.20
2018-03-08T10:57:36.798Z,9.50
2018-03-08T11:00:07.888Z,10.43
2018-03-08T11:02:44.874Z,10.80
2018-03-08T11:05:16.041Z,10.43
2018-03-08T11:07:47.049Z,10.63
2018-03-08T11:10:17.838Z,9.23
2018-03-08T11:12:48.361Z,11.50
2018-03-08T11:15:19.444Z,12.80
2018-03-08T11:17:50.427Z,12.97
2018-03-08T11:20:20.998Z,11.87
2018-03-08T11:22:51.780Z,11.67
2018-03-08T11:25:22.626Z,11.63
2018-03-08T11:27:52.839Z,12.10
2018-03-08T11:30:23.418Z,12.57
2018-03-08T11:32:54.674Z,12.90
2018-03-08T11:35:25.248Z,12.47
2018-03-08T11:37:56.838Z,11.40
2018-03-08T11:40:28.023Z,12.77
2018-03-08T11:42:58.474Z,11.73
2018-03-08T11:45:29.205Z,10.77
2018-03-08T11:48:00.046Z,11.97
2018-03-08T11:50:31.287Z,12.13
2018-03-08T11:53:02.026Z,12.40
2018-03-08T11:55:32.794Z,10.97
2018-03-08T11:58:03.638Z,11.40
2018-03-08T12:00:34.675Z,11.90
2018-03-08T12:03:05.547Z,11.63
2018-03-08T12:05:36.325Z,11.57
2018-03-08T12:08:07.733Z,13.57
2018-03-08T12:10:38.581Z,14.50
2018-03-08T12:13:09.021Z,16.37
2018-03-08T12:15:39.576Z,17.10
2018-03-08T12:18:10.933Z,16.83
2018-03-08T12:20:40.917Z,17.00
2018-03-08T12:23:11.555Z,16.87
2018-03-08T12:25:42.184Z,16.27
2018-03-08T12:28:12.479Z,17.97
2018-03-08T12:30:43.367Z,16.63
2018-03-08T12:33:13.991Z,16.93
2018-03-08T12:35:44.568Z,16.70
2018-03-08T12:38:15.711Z,14.33
2018-03-08T12:40:46.394Z,14.20
2018-03-08T12:43:18.529Z,13.47
2018-03-08T12:45:48.469Z,12.23
2018-03-08T12:48:19.068Z,11.73
2018-03-08T12:50:49.715Z,12.83
2018-03-08T12:53:20.449Z,13.30
2018-03-08T12:55:50.982Z,15.70
2018-03-08T12:58:21.501Z,13.40
2018-03-08T13:00:52.056Z,13.73
2018-03-08T13:03:23.168Z,12.83
2018-03-08T13:05:53.394Z,12.80
2018-03-08T13:08:24.029Z,10.80
2018-03-08T13:10:54.870Z,9.70
2018-03-08T13:13:25.464Z,10.20
2018-03-08T13:15:56.121Z,10.43
2018-03-08T13:18:26.678Z,12.33
2018-03-08T13:20:57.188Z,15.07
2018-03-08T13:23:27.814Z,12.77
2018-03-08T13:25:58.446Z,13.10
2018-03-08T13:28:28.590Z,12.77
2018-03-08T13:30:58.724Z,13.73
2018-03-08T13:33:30.102Z,12.77
2018-03-08T13:36:00.692Z,10.57
2018-03-08T13:38:32.310Z,10.70
2018-03-08T13:41:02.890Z,9.77
2018-03-08T13:43:33.626Z,10.90
2018-03-08T13:46:04.014Z,10.43
2018-03-08T13:48:34.974Z,11.20
2018-03-08T13:51:06.036Z,12.60
2018-03-08T13:53:37.792Z,12.97
2018-03-08T13:56:08.712Z,9.63
2018-03-08T13:58:39.863Z,11.90
2018-03-08T14:01:10.180Z,15.47
2018-03-08T14:03:40.839Z,11.33
2018-03-08T14:06:11.654Z,9.60
2018-03-08T14:08:42.519Z,11.77
2018-03-08T14:11:13.126Z,11.47
2018-03-08T14:13:43.958Z,11.20
2018-03-08T14:16:14.666Z,11.73
2018-03-08T14:18:45.941Z,12.53
2018-03-08T14:21:16.363Z,12.40
2018-03-08T14:23:47.879Z,11.30
2018-03-08T14:26:19.145Z,12.40
2018-03-08T14:28:49.862Z,7.23
2018-03-08T14:31:20.713Z,8.57
2018-03-08T14:33:51.584Z,6.47
2018-03-08T14:36:22.633Z,9.03
2018-03-08T14:38:53.143Z,9.20
2018-03-08T14:41:24.119Z,9.10
2018-03-08T14:43:55.031Z,7.90
2018-03-08T14:46:25.668Z,7.40
2018-03-08T14:48:56.067Z,8.40
2018-03-08T14:51:26.740Z,8.43
2018-03-08T14:53:57.241Z,9.00
2018-03-08T14:56:27.674Z,11.50
2018-03-08T14:58:58.098Z,9.50
2018-03-08T15:01:28.364Z,9.00
2018-03-08T15:03:59.262Z,9.40
2018-03-08T15:06:30.256Z,10.60
2018-03-08T15:09:01.030Z,11.37
2018-03-08T15:11:31.638Z,11.27
2018-03-08T15:14:02.270Z,10.43
2018-03-08T15:16:34.275Z,11.57
2018-03-08T15:19:04.887Z,11.93
2018-03-08T15:21:35.521Z,10.83
2018-03-08T15:24:06.576Z,9.40
2018-03-08T15:26:36.479Z,9.27
2018-03-08T15:29:06.597Z,8.90
2018-03-08T15:31:37.379Z,10.27
2018-03-08T15:34:07.353Z,9.77
2018-03-08T15:36:38.087Z,9.80
2018-03-08T15:39:08.763Z,9.87
2018-03-08T15:41:39.753Z,11.00
2018-03-08T15:44:10.514Z,8.03
2018-03-08T15:46:41.215Z,5.37
2018-03-08T15:49:11.564Z,5.57
2018-03-08T15:51:42.611Z,5.70
2018-03-08T15:54:13.224Z,4.63
2018-03-08T15:56:44.207Z,4.17
2018-03-08T15:59:14.179Z,3.87
2018-03-08T16:01:45.255Z,4.30
2018-03-08T16:04:15.594Z,3.73
2018-03-08T16:07:09.221Z,3.73
2018-03-08T16:09:51.227Z,3.53
2018-03-08T16:12:21.757Z,3.40
2018-03-08T16:14:52.911Z,3.50
2018-03-08T16:17:23.498Z,3.37
2018-03-08T16:19:54.683Z,3.50
2018-03-08T16:22:25.306Z,3.47
2018-03-08T16:24:56.048Z,3.73
2018-03-08T16:27:26.580Z,3.57
2018-03-08T16:29:57.772Z,3.13
2018-03-08T16:32:28.892Z,3.10
2018-03-08T16:35:00.164Z,3.50
2018-03-08T16:37:30.633Z,3.30
2018-03-08T16:40:00.613Z,3.10
2018-03-08T16:42:31.181Z,3.30
2018-03-08T16:45:01.810Z,3.37
2018-03-08T16:47:32.441Z,3.77
2018-03-08T16:50:02.468Z,3.90
2018-03-08T16:52:33.193Z,3.53
2018-03-08T16:55:03.432Z,4.10
2018-03-08T16:57:34.615Z,4.30
2018-03-08T17:00:04.477Z,4.10
2018-03-08T17:02:34.392Z,4.60
2018-03-08T17:05:04.426Z,4.60
2018-03-08T17:07:34.227Z,4.40
2018-03-08T17:10:04.133Z,4.43
2018-03-08T17:12:34.164Z,4.43
2018-03-08T17:15:04.143Z,4.37
2018-03-08T17:17:33.981Z,4.40
2018-03-08T17:20:03.899Z,4.80
2018-03-08T17:22:33.843Z,4.40
2018-03-08T17:25:03.851Z,4.30
2018-03-08T17:27:34.851Z,4.40
2018-03-08T17:30:05.893Z,4.23
2018-03-08T17:32:35.837Z,3.97
2018-03-08T17:35:05.748Z,4.63
2018-03-08T17:37:35.663Z,4.40
2018-03-08T17:40:05.473Z,4.70
2018-03-08T17:42:35.281Z,4.43
2018-03-08T17:45:05.213Z,4.03
2018-03-08T17:47:35.275Z,3.60
2018-03-08T17:50:05.134Z,3.40
2018-03-08T17:52:35.273Z,3.03
2018-03-08T17:55:05.473Z,2.47
2018-03-08T17:57:35.905Z,2.50
2018-03-08T18:00:05.818Z,2.20
2018-03-08T18:02:35.634Z,2.23
2018-03-08T18:05:05.723Z,2.17
2018-03-08T18:07:35.764Z,2.13
2018-03-08T18:10:05.885Z,2.30
2018-03-08T18:12:35.907Z,2.00
2018-03-08T18:15:05.933Z,2.20
2018-03-08T18:17:35.837Z,2.00
2018-03-08T18:20:05.659Z,2.20
2018-03-08T18:22:35.703Z,2.43
2018-03-08T18:25:05.708Z,2.30
2018-03-08T18:27:36.728Z,2.43
2018-03-08T18:30:06.772Z,2.40
2018-03-08T18:32:36.760Z,2.40
2018-03-08T18:35:06.824Z,2.53
2018-03-08T18:37:36.878Z,2.73
2018-03-08T18:40:07.626Z,2.80
2018-03-08T18:42:37.647Z,2.70
2018-03-08T18:45:07.866Z,3.40
2018-03-08T18:47:37.837Z,3.67
2018-03-08T18:50:08.028Z,4.70
2018-03-08T18:52:37.924Z,5.40
2018-03-08T18:55:07.739Z,6.00
2018-03-08T18:57:38.672Z,7.37
2018-03-08T19:00:08.697Z,11.87
2018-03-08T19:02:38.510Z,18.77
2018-03-08T19:05:08.421Z,19.03
2018-03-08T19:07:38.374Z,14.80
2018-03-08T19:10:08.350Z,8.90
2018-03-08T19:12:38.356Z,5.30
2018-03-08T19:15:08.325Z,4.03
2018-03-08T19:17:38.311Z,3.67
2018-03-08T19:20:08.130Z,3.00
2018-03-08T19:22:38.351Z,3.20
2018-03-08T19:25:08.382Z,2.80
2018-03-08T19:27:38.293Z,2.90
2018-03-08T19:30:08.286Z,2.90
2018-03-08T19:32:38.952Z,2.70
2018-03-08T19:35:09.058Z,2.53
2018-03-08T19:37:38.970Z,2.60
2018-03-08T19:40:08.773Z,2.53
2018-03-08T19:42:38.588Z,3.13
2018-03-08T19:45:09.523Z,3.30
2018-03-08T19:47:40.166Z,4.00
2018-03-08T19:50:10.394Z,4.30
2018-03-08T19:52:41.211Z,4.50
2018-03-08T19:55:11.194Z,4.87
2018-03-08T19:57:41.268Z,4.97
2018-03-08T20:00:11.060Z,5.13
2018-03-08T20:02:42.047Z,5.70
2018-03-08T20:05:12.212Z,5.53
2018-03-08T20:07:42.580Z,5.67
2018-03-08T20:10:13.011Z,5.63
2018-03-08T20:12:43.549Z,5.93
2018-03-08T20:15:14.876Z,6.40
2018-03-08T20:17:45.011Z,5.63
2018-03-08T20:20:15.000Z,6.33
2018-03-08T20:22:45.237Z,6.27
2018-03-08T20:25:15.381Z,6.03
2018-03-08T20:27:45.672Z,6.90
2018-03-08T20:30:15.623Z,6.70
2018-03-08T20:32:46.741Z,7.00
2018-03-08T20:35:16.628Z,8.23
2018-03-08T20:37:46.684Z,6.97
2018-03-08T20:40:16.660Z,8.10
2018-03-08T20:42:46.681Z,8.63
2018-03-08T20:45:16.593Z,7.37
2018-03-08T20:47:46.520Z,7.77
2018-03-08T20:50:16.435Z,8.10
2018-03-08T20:52:46.453Z,7.60
2018-03-08T20:55:16.472Z,7.90
2018-03-08T20:57:46.275Z,8.13
2018-03-08T21:00:16.085Z,8.07
2018-03-08T21:02:46.108Z,8.03
2018-03-08T21:05:16.019Z,7.10
2018-03-08T21:07:45.948Z,8.40
2018-03-08T21:10:15.865Z,8.03
2018-03-08T21:12:45.779Z,7.57
2018-03-08T21:15:16.084Z,7.67
2018-03-08T21:17:45.901Z,7.57
2018-03-08T21:20:15.676Z,7.43
2018-03-08T21:22:45.637Z,8.30
2018-03-08T21:25:15.563Z,8.30
2018-03-08T21:27:45.344Z,8.70
2018-03-08T21:30:15.170Z,8.53
2018-03-08T21:32:45.098Z,8.20
2018-03-08T21:35:14.999Z,8.30
2018-03-08T21:37:45.356Z,7.97
2018-03-08T21:40:15.511Z,8.53
2018-03-08T21:42:46.614Z,8.17
2018-03-08T21:45:16.588Z,9.30
2018-03-08T21:47:46.550Z,9.10
2018-03-08T21:50:16.549Z,8.80
2018-03-08T21:52:46.465Z,6.40
2018-03-08T21:55:16.593Z,6.07
2018-03-08T21:57:46.400Z,6.00
2018-03-08T22:00:16.201Z,5.40
2018-03-08T22:02:46.121Z,5.77
2018-03-08T22:05:16.021Z,6.30
2018-03-08T22:07:46.058Z,6.73
2018-03-08T22:10:16.075Z,6.80
2018-03-08T22:12:45.996Z,7.03
2018-03-08T22:15:15.911Z,6.80
2018-03-08T22:17:46.731Z,7.70
2018-03-08T22:20:16.651Z,6.93
2018-03-08T22:22:46.457Z,6.17
2018-03-08T22:25:16.481Z,7.67
2018-03-08T22:27:46.403Z,7.20
2018-03-08T22:30:16.208Z,6.50
2018-03-08T22:32:46.119Z,6.70
2018-03-08T22:35:16.034Z,6.60
2018-03-08T22:37:45.847Z,6.20
2018-03-08T22:40:15.666Z,6.70
2018-03-08T22:42:45.575Z,6.53
2018-03-08T22:45:16.416Z,6.77
2018-03-08T22:47:46.244Z,7.00
2018-03-08T22:50:16.240Z,6.90
2018-03-08T22:52:46.168Z,7.20
2018-03-08T22:55:15.975Z,7.90
2018-03-08T22:57:46.502Z,7.87
2018-03-08T23:00:16.419Z,7.10
2018-03-08T23:02:46.326Z,7.40
2018-03-08T23:05:16.342Z,7.40
2018-03-08T23:07:46.993Z,7.73
2018-03-08T23:10:16.900Z,8.00
2018-03-08T23:12:46.703Z,6.57
2018-03-08T23:15:16.618Z,7.57
2018-03-08T23:17:46.439Z,7.70
2018-03-08T23:20:17.418Z,9.33
2018-03-08T23:22:48.527Z,6.83
2018-03-08T23:25:19.231Z,6.87
2018-03-08T23:27:49.178Z,7.80
2018-03-08T23:30:19.182Z,6.73
2018-03-08T23:32:49.686Z,7.93
2018-03-08T23:35:20.148Z,7.53
2018-03-08T23:37:51.079Z,5.73
2018-03-08T23:40:21.408Z,5.80
2018-03-08T23:42:51.930Z,4.13
2018-03-08T23:45:22.562Z,5.90
2018-03-08T23:47:52.784Z,6.20
2018-03-08T23:50:23.266Z,5.93
2018-03-08T23:52:53.614Z,7.30
2018-03-08T23:55:23.664Z,8.60
2018-03-08T23:57:54.665Z,8.27
